sensor_id;sensor_type;location;lat;lon;timestamp;P1;durP1;ratioP1;P2;durP2;ratioP2
59830;SDS011;45711;50.108;13.712;2022-09-09T00:02:01;2.13;;;1.13;;
59830;SDS011;45711;50.108;13.712;2022-09-09T00:04:36;5.15;;;1.42;;
59830;SDS011;45711;50.108;13.712;2022-09-09T00:07:04;4.68;;;1.30;;
59830;SDS011;45711;50.108;13.712;2022-09-09T00:09:39;7.40;;;2.33;;
59830;SDS011;45711;50.108;13.712;2022-09-09T00:12:11;2.55;;;1.38;;
59830;SDS011;45711;50.108;13.712;2022-09-09T00:14:42;2.28;;;1.40;;
59830;SDS011;45711;50.108;13.712;2022-09-09T00:17:14;3.58;;;1.55;;
59830;SDS011;45711;50.108;13.712;2022-09-09T00:19:52;5.18;;;1.58;;
59830;SDS011;45711;50.108;13.712;2022-09-09T00:22:22;9.98;;;1.40;;
59830;SDS011;45711;50.108;13.712;2022-09-09T00:24:51;5.13;;;1.40;;
59830;SDS011;45711;50.108;13.712;2022-09-09T00:27:23;4.60;;;1.40;;
59830;SDS011;45711;50.108;13.712;2022-09-09T00:29:55;6.22;;;1.52;;
59830;SDS011;45711;50.108;13.712;2022-09-09T00:32:27;5.13;;;1.75;;
59830;SDS011;45711;50.108;13.712;2022-09-09T00:34:56;3.17;;;1.77;;
59830;SDS011;45711;50.108;13.712;2022-09-09T00:37:28;3.45;;;1.35;;
59830;SDS011;45711;50.108;13.712;2022-09-09T00:39:58;5.72;;;1.60;;
59830;SDS011;45711;50.108;13.712;2022-09-09T00:42:31;4.35;;;1.50;;
59830;SDS011;45711;50.108;13.712;2022-09-09T00:45:08;5.30;;;1.42;;
59830;SDS011;45711;50.108;13.712;2022-09-09T00:47:45;4.88;;;1.48;;
59830;SDS011;45711;50.108;13.712;2022-09-09T00:50:25;2.58;;;1.40;;
59830;SDS011;45711;50.108;13.712;2022-09-09T00:53:02;3.63;;;1.52;;
59830;SDS011;45711;50.108;13.712;2022-09-09T00:55:39;4.68;;;1.30;;
59830;SDS011;45711;50.108;13.712;2022-09-09T00:58:09;3.78;;;1.58;;
59830;SDS011;45711;50.108;13.712;2022-09-09T01:00:35;4.15;;;1.38;;
59830;SDS011;45711;50.108;13.712;2022-09-09T01:03:17;3.90;;;1.30;;
59830;SDS011;45711;50.108;13.712;2022-09-09T01:05:48;4.22;;;1.40;;
59830;SDS011;45711;50.108;13.712;2022-09-09T01:08:26;4.35;;;1.40;;
59830;SDS011;45711;50.108;13.712;2022-09-09T01:11:06;5.65;;;1.50;;
59830;SDS011;45711;50.108;13.712;2022-09-09T01:13:41;4.80;;;1.63;;
59830;SDS011;45711;50.108;13.712;2022-09-09T01:16:07;2.85;;;1.50;;
59830;SDS011;45711;50.108;13.712;2022-09-09T01:18:37;2.25;;;1.48;;
59830;SDS011;45711;50.108;13.712;2022-09-09T01:21:09;1.98;;;1.50;;
59830;SDS011;45711;50.108;13.712;2022-09-09T01:23:47;5.90;;;1.77;;
59830;SDS011;45711;50.108;13.712;2022-09-09T01:26:35;5.07;;;1.88;;
59830;SDS011;45711;50.108;13.712;2022-09-09T01:29:02;6.50;;;1.77;;
59830;SDS011;45711;50.108;13.712;2022-09-09T01:31:32;10.18;;;1.98;;
59830;SDS011;45711;50.108;13.712;2022-09-09T01:34:02;6.60;;;2.15;;
59830;SDS011;45711;50.108;13.712;2022-09-09T01:36:37;5.97;;;1.90;;
59830;SDS011;45711;50.108;13.712;2022-09-09T01:39:07;8.70;;;2.15;;
59830;SDS011;45711;50.108;13.712;2022-09-09T01:41:32;7.78;;;2.05;;
59830;SDS011;45711;50.108;13.712;2022-09-09T01:44:00;8.55;;;2.40;;
59830;SDS011;45711;50.108;13.712;2022-09-09T01:46:25;5.18;;;2.20;;
59830;SDS011;45711;50.108;13.712;2022-09-09T01:48:54;4.20;;;2.05;;
59830;SDS011;45711;50.108;13.712;2022-09-09T01:51:58;6.55;;;2.42;;
59830;SDS011;45711;50.108;13.712;2022-09-09T01:54:24;8.60;;;2.42;;
59830;SDS011;45711;50.108;13.712;2022-09-09T01:56:56;16.83;;;2.65;;
59830;SDS011;45711;50.108;13.712;2022-09-09T01:59:39;12.48;;;3.03;;
59830;SDS011;45711;50.108;13.712;2022-09-09T02:02:15;11.38;;;2.47;;
59830;SDS011;45711;50.108;13.712;2022-09-09T02:04:43;8.23;;;2.58;;
59830;SDS011;45711;50.108;13.712;2022-09-09T02:07:14;5.78;;;2.40;;
59830;SDS011;45711;50.108;13.712;2022-09-09T02:09:52;2.58;;;2.17;;
59830;SDS011;45711;50.108;13.712;2022-09-09T02:12:25;5.88;;;2.90;;
59830;SDS011;45711;50.108;13.712;2022-09-09T02:14:55;4.90;;;2.08;;
59830;SDS011;45711;50.108;13.712;2022-09-09T02:17:26;9.63;;;2.85;;
59830;SDS011;45711;50.108;13.712;2022-09-09T02:19:57;13.40;;;8.02;;
59830;SDS011;45711;50.108;13.712;2022-09-09T02:22:28;8.38;;;2.60;;
59830;SDS011;45711;50.108;13.712;2022-09-09T02:24:59;3.35;;;2.22;;
59830;SDS011;45711;50.108;13.712;2022-09-09T02:27:26;11.25;;;2.40;;
59830;SDS011;45711;50.108;13.712;2022-09-09T02:29:53;4.03;;;2.17;;
59830;SDS011;45711;50.108;13.712;2022-09-09T02:32:22;6.55;;;2.10;;
59830;SDS011;45711;50.108;13.712;2022-09-09T02:34:50;9.27;;;2.67;;
59830;SDS011;45711;50.108;13.712;2022-09-09T02:37:21;13.40;;;2.08;;
59830;SDS011;45711;50.108;13.712;2022-09-09T02:39:50;6.38;;;2.42;;
59830;SDS011;45711;50.108;13.712;2022-09-09T02:42:15;2.92;;;1.90;;
59830;SDS011;45711;50.108;13.712;2022-09-09T02:44:42;3.50;;;2.20;;
59830;SDS011;45711;50.108;13.712;2022-09-09T02:47:25;8.35;;;2.13;;
59830;SDS011;45711;50.108;13.712;2022-09-09T02:50:00;7.43;;;2.50;;
59830;SDS011;45711;50.108;13.712;2022-09-09T02:52:34;6.28;;;2.00;;
59830;SDS011;45711;50.108;13.712;2022-09-09T02:55:11;4.97;;;2.08;;
59830;SDS011;45711;50.108;13.712;2022-09-09T02:57:42;2.75;;;2.03;;
59830;SDS011;45711;50.108;13.712;2022-09-09T03:00:14;12.15;;;2.38;;
59830;SDS011;45711;50.108;13.712;2022-09-09T03:02:40;4.30;;;1.83;;
59830;SDS011;45711;50.108;13.712;2022-09-09T03:05:07;5.32;;;2.28;;
59830;SDS011;45711;50.108;13.712;2022-09-09T03:07:33;4.63;;;1.90;;
59830;SDS011;45711;50.108;13.712;2022-09-09T03:09:58;9.02;;;2.08;;
59830;SDS011;45711;50.108;13.712;2022-09-09T03:12:24;6.32;;;2.25;;
59830;SDS011;45711;50.108;13.712;2022-09-09T03:14:50;7.70;;;2.25;;
59830;SDS011;45711;50.108;13.712;2022-09-09T03:17:16;7.53;;;2.38;;
59830;SDS011;45711;50.108;13.712;2022-09-09T03:19:42;6.45;;;2.05;;
59830;SDS011;45711;50.108;13.712;2022-09-09T03:22:09;3.20;;;2.03;;
59830;SDS011;45711;50.108;13.712;2022-09-09T03:24:35;5.80;;;2.17;;
59830;SDS011;45711;50.108;13.712;2022-09-09T03:27:01;7.10;;;2.63;;
59830;SDS011;45711;50.108;13.712;2022-09-09T03:29:26;4.25;;;2.10;;
59830;SDS011;45711;50.108;13.712;2022-09-09T03:31:52;7.43;;;2.42;;
59830;SDS011;45711;50.108;13.712;2022-09-09T03:34:19;10.32;;;2.72;;
59830;SDS011;45711;50.108;13.712;2022-09-09T03:36:44;5.65;;;2.58;;
59830;SDS011;45711;50.108;13.712;2022-09-09T03:39:10;4.85;;;2.58;;
59830;SDS011;45711;50.108;13.712;2022-09-09T03:41:36;8.52;;;3.05;;
59830;SDS011;45711;50.108;13.712;2022-09-09T03:44:02;8.60;;;3.20;;
59830;SDS011;45711;50.108;13.712;2022-09-09T03:46:28;7.35;;;3.30;;
59830;SDS011;45711;50.108;13.712;2022-09-09T03:48:53;6.65;;;3.45;;
59830;SDS011;45711;50.108;13.712;2022-09-09T03:51:20;6.07;;;3.30;;
59830;SDS011;45711;50.108;13.712;2022-09-09T03:53:47;5.88;;;3.55;;
59830;SDS011;45711;50.108;13.712;2022-09-09T03:56:12;8.63;;;3.80;;
59830;SDS011;45711;50.108;13.712;2022-09-09T03:58:38;12.13;;;3.92;;
59830;SDS011;45711;50.108;13.712;2022-09-09T04:01:05;6.32;;;4.25;;
59830;SDS011;45711;50.108;13.712;2022-09-09T04:03:33;6.78;;;3.55;;
59830;SDS011;45711;50.108;13.712;2022-09-09T04:06:01;8.15;;;4.10;;
59830;SDS011;45711;50.108;13.712;2022-09-09T04:08:30;6.28;;;3.63;;
59830;SDS011;45711;50.108;13.712;2022-09-09T04:10:58;4.57;;;3.05;;
59830;SDS011;45711;50.108;13.712;2022-09-09T04:13:27;7.00;;;2.40;;
59830;SDS011;45711;50.108;13.712;2022-09-09T04:15:53;8.95;;;2.70;;
59830;SDS011;45711;50.108;13.712;2022-09-09T04:18:20;15.15;;;3.05;;
59830;SDS011;45711;50.108;13.712;2022-09-09T04:20:46;8.93;;;3.88;;
59830;SDS011;45711;50.108;13.712;2022-09-09T04:23:12;13.98;;;4.53;;
59830;SDS011;45711;50.108;13.712;2022-09-09T04:25:39;12.80;;;5.43;;
59830;SDS011;45711;50.108;13.712;2022-09-09T04:28:09;9.90;;;4.72;;
59830;SDS011;45711;50.108;13.712;2022-09-09T04:30:35;10.15;;;5.15;;
59830;SDS011;45711;50.108;13.712;2022-09-09T04:33:01;7.47;;;4.63;;
59830;SDS011;45711;50.108;13.712;2022-09-09T04:35:26;7.20;;;5.00;;
59830;SDS011;45711;50.108;13.712;2022-09-09T04:37:52;13.15;;;5.38;;
59830;SDS011;45711;50.108;13.712;2022-09-09T04:40:17;10.85;;;5.65;;
59830;SDS011;45711;50.108;13.712;2022-09-09T04:42:44;16.33;;;5.97;;
59830;SDS011;45711;50.108;13.712;2022-09-09T04:45:13;10.50;;;5.97;;
59830;SDS011;45711;50.108;13.712;2022-09-09T04:47:38;13.07;;;5.95;;
59830;SDS011;45711;50.108;13.712;2022-09-09T04:50:04;12.65;;;6.57;;
59830;SDS011;45711;50.108;13.712;2022-09-09T04:52:30;36.33;;;6.90;;
59830;SDS011;45711;50.108;13.712;2022-09-09T04:54:56;34.42;;;5.70;;
59830;SDS011;45711;50.108;13.712;2022-09-09T04:57:22;22.65;;;5.07;;
59830;SDS011;45711;50.108;13.712;2022-09-09T04:59:49;16.15;;;3.92;;
59830;SDS011;45711;50.108;13.712;2022-09-09T05:02:15;16.67;;;4.00;;
59830;SDS011;45711;50.108;13.712;2022-09-09T05:04:40;9.98;;;4.38;;
59830;SDS011;45711;50.108;13.712;2022-09-09T05:07:06;18.23;;;4.43;;
59830;SDS011;45711;50.108;13.712;2022-09-09T05:09:32;28.83;;;5.45;;
59830;SDS011;45711;50.108;13.712;2022-09-09T05:11:57;8.45;;;4.95;;
59830;SDS011;45711;50.108;13.712;2022-09-09T05:14:23;29.73;;;5.70;;
59830;SDS011;45711;50.108;13.712;2022-09-09T05:16:50;22.27;;;5.38;;
59830;SDS011;45711;50.108;13.712;2022-09-09T05:19:16;19.10;;;4.90;;
59830;SDS011;45711;50.108;13.712;2022-09-09T05:21:44;25.45;;;5.00;;
59830;SDS011;45711;50.108;13.712;2022-09-09T05:24:09;12.85;;;4.22;;
59830;SDS011;45711;50.108;13.712;2022-09-09T05:26:36;22.73;;;3.72;;
59830;SDS011;45711;50.108;13.712;2022-09-09T05:29:01;18.08;;;4.43;;
59830;SDS011;45711;50.108;13.712;2022-09-09T05:31:29;12.35;;;4.63;;
59830;SDS011;45711;50.108;13.712;2022-09-09T05:33:57;10.55;;;6.03;;
59830;SDS011;45711;50.108;13.712;2022-09-09T05:36:23;18.10;;;5.32;;
59830;SDS011;45711;50.108;13.712;2022-09-09T05:38:49;16.75;;;5.50;;
59830;SDS011;45711;50.108;13.712;2022-09-09T05:41:15;11.32;;;5.82;;
59830;SDS011;45711;50.108;13.712;2022-09-09T05:43:44;9.27;;;5.55;;
59830;SDS011;45711;50.108;13.712;2022-09-09T05:46:11;13.10;;;6.20;;
59830;SDS011;45711;50.108;13.712;2022-09-09T05:48:38;6.88;;;5.40;;
59830;SDS011;45711;50.108;13.712;2022-09-09T05:51:07;9.02;;;5.70;;
59830;SDS011;45711;50.108;13.712;2022-09-09T05:53:36;7.47;;;5.05;;
59830;SDS011;45711;50.108;13.712;2022-09-09T05:56:03;6.85;;;5.15;;
59830;SDS011;45711;50.108;13.712;2022-09-09T05:58:30;10.23;;;5.70;;
59830;SDS011;45711;50.108;13.712;2022-09-09T06:01:03;7.32;;;5.20;;
59830;SDS011;45711;50.108;13.712;2022-09-09T06:03:30;11.57;;;5.90;;
59830;SDS011;45711;50.108;13.712;2022-09-09T06:05:59;9.18;;;5.30;;
59830;SDS011;45711;50.108;13.712;2022-09-09T06:08:27;8.35;;;5.00;;
59830;SDS011;45711;50.108;13.712;2022-09-09T06:10:53;9.52;;;5.70;;
59830;SDS011;45711;50.108;13.712;2022-09-09T06:13:19;11.07;;;5.30;;
59830;SDS011;45711;50.108;13.712;2022-09-09T06:15:48;8.07;;;4.82;;
59830;SDS011;45711;50.108;13.712;2022-09-09T06:18:15;7.10;;;4.60;;
59830;SDS011;45711;50.108;13.712;2022-09-09T06:23:27;7.40;;;4.00;;
59830;SDS011;45711;50.108;13.712;2022-09-09T06:26:00;5.32;;;4.38;;
59830;SDS011;45711;50.108;13.712;2022-09-09T06:28:27;7.55;;;4.03;;
59830;SDS011;45711;50.108;13.712;2022-09-09T06:30:56;6.15;;;4.40;;
59830;SDS011;45711;50.108;13.712;2022-09-09T06:33:23;6.90;;;5.18;;
59830;SDS011;45711;50.108;13.712;2022-09-09T06:35:50;7.25;;;5.53;;
59830;SDS011;45711;50.108;13.712;2022-09-09T06:38:18;11.25;;;5.43;;
59830;SDS011;45711;50.108;13.712;2022-09-09T06:40:47;6.80;;;4.68;;
59830;SDS011;45711;50.108;13.712;2022-09-09T06:43:16;7.72;;;4.88;;
59830;SDS011;45711;50.108;13.712;2022-09-09T06:45:42;6.43;;;4.93;;
59830;SDS011;45711;50.108;13.712;2022-09-09T06:48:08;9.65;;;5.25;;
59830;SDS011;45711;50.108;13.712;2022-09-09T06:50:34;7.03;;;3.55;;
59830;SDS011;45711;50.108;13.712;2022-09-09T06:52:59;7.53;;;4.13;;
59830;SDS011;45711;50.108;13.712;2022-09-09T06:55:25;10.52;;;5.50;;
59830;SDS011;45711;50.108;13.712;2022-09-09T06:57:52;9.70;;;4.82;;
59830;SDS011;45711;50.108;13.712;2022-09-09T07:00:17;8.73;;;4.72;;
59830;SDS011;45711;50.108;13.712;2022-09-09T07:02:43;4.22;;;3.60;;
59830;SDS011;45711;50.108;13.712;2022-09-09T07:05:09;7.30;;;3.92;;
59830;SDS011;45711;50.108;13.712;2022-09-09T07:07:35;6.82;;;4.05;;
59830;SDS011;45711;50.108;13.712;2022-09-09T07:10:02;5.13;;;3.35;;
59830;SDS011;45711;50.108;13.712;2022-09-09T07:12:29;7.13;;;3.45;;
59830;SDS011;45711;50.108;13.712;2022-09-09T07:14:56;6.45;;;4.50;;
59830;SDS011;45711;50.108;13.712;2022-09-09T07:17:21;10.38;;;4.18;;
59830;SDS011;45711;50.108;13.712;2022-09-09T07:19:47;7.25;;;3.00;;
59830;SDS011;45711;50.108;13.712;2022-09-09T07:22:13;6.43;;;3.10;;
59830;SDS011;45711;50.108;13.712;2022-09-09T07:24:39;4.18;;;2.60;;
59830;SDS011;45711;50.108;13.712;2022-09-09T07:27:05;3.47;;;2.92;;
59830;SDS011;45711;50.108;13.712;2022-09-09T07:29:30;5.30;;;3.22;;
59830;SDS011;45711;50.108;13.712;2022-09-09T07:31:57;6.22;;;3.88;;
59830;SDS011;45711;50.108;13.712;2022-09-09T07:34:23;5.72;;;3.67;;
59830;SDS011;45711;50.108;13.712;2022-09-09T07:36:49;4.90;;;2.90;;
59830;SDS011;45711;50.108;13.712;2022-09-09T07:39:15;2.78;;;1.98;;
59830;SDS011;45711;50.108;13.712;2022-09-09T07:41:42;4.40;;;2.75;;
59830;SDS011;45711;50.108;13.712;2022-09-09T07:44:10;9.48;;;3.08;;
59830;SDS011;45711;50.108;13.712;2022-09-09T07:46:37;7.32;;;3.22;;
59830;SDS011;45711;50.108;13.712;2022-09-09T07:49:06;3.00;;;2.17;;
59830;SDS011;45711;50.108;13.712;2022-09-09T07:51:33;6.00;;;2.35;;
59830;SDS011;45711;50.108;13.712;2022-09-09T07:54:00;5.32;;;2.30;;
59830;SDS011;45711;50.108;13.712;2022-09-09T07:56:27;4.88;;;2.10;;
59830;SDS011;45711;50.108;13.712;2022-09-09T07:58:54;5.65;;;1.98;;
59830;SDS011;45711;50.108;13.712;2022-09-09T08:01:21;2.45;;;2.00;;
59830;SDS011;45711;50.108;13.712;2022-09-09T08:03:52;3.10;;;1.88;;
59830;SDS011;45711;50.108;13.712;2022-09-09T08:06:21;4.70;;;1.73;;
59830;SDS011;45711;50.108;13.712;2022-09-09T08:08:49;6.95;;;1.80;;
59830;SDS011;45711;50.108;13.712;2022-09-09T08:11:15;2.58;;;1.52;;
59830;SDS011;45711;50.108;13.712;2022-09-09T08:13:41;6.03;;;1.90;;
59830;SDS011;45711;50.108;13.712;2022-09-09T08:16:09;11.57;;;2.45;;
59830;SDS011;45711;50.108;13.712;2022-09-09T08:18:36;6.75;;;2.10;;
59830;SDS011;45711;50.108;13.712;2022-09-09T08:21:06;4.55;;;1.60;;
59830;SDS011;45711;50.108;13.712;2022-09-09T08:23:35;6.57;;;2.08;;
59830;SDS011;45711;50.108;13.712;2022-09-09T08:26:05;4.80;;;1.80;;
59830;SDS011;45711;50.108;13.712;2022-09-09T08:28:32;8.15;;;2.00;;
59830;SDS011;45711;50.108;13.712;2022-09-09T08:31:04;9.38;;;2.00;;
59830;SDS011;45711;50.108;13.712;2022-09-09T08:33:31;8.15;;;1.58;;
59830;SDS011;45711;50.108;13.712;2022-09-09T08:35:58;6.35;;;2.00;;
59830;SDS011;45711;50.108;13.712;2022-09-09T08:38:24;2.65;;;1.30;;
59830;SDS011;45711;50.108;13.712;2022-09-09T08:40:51;1.90;;;1.27;;
59830;SDS011;45711;50.108;13.712;2022-09-09T08:43:26;4.82;;;1.58;;
59830;SDS011;45711;50.108;13.712;2022-09-09T08:45:55;3.33;;;1.30;;
59830;SDS011;45711;50.108;13.712;2022-09-09T08:48:34;2.83;;;1.42;;
59830;SDS011;45711;50.108;13.712;2022-09-09T08:51:08;3.83;;;1.50;;
59830;SDS011;45711;50.108;13.712;2022-09-09T08:53:36;3.03;;;1.58;;
59830;SDS011;45711;50.108;13.712;2022-09-09T08:56:10;3.47;;;1.25;;
59830;SDS011;45711;50.108;13.712;2022-09-09T08:58:40;6.13;;;1.48;;
59830;SDS011;45711;50.108;13.712;2022-09-09T09:04:07;3.08;;;1.25;;
59830;SDS011;45711;50.108;13.712;2022-09-09T09:06:47;1.75;;;1.10;;
59830;SDS011;45711;50.108;13.712;2022-09-09T09:09:21;2.95;;;1.42;;
59830;SDS011;45711;50.108;13.712;2022-09-09T09:11:54;3.85;;;1.40;;
59830;SDS011;45711;50.108;13.712;2022-09-09T09:14:26;2.38;;;1.05;;
59830;SDS011;45711;50.108;13.712;2022-09-09T09:16:54;1.58;;;1.20;;
59830;SDS011;45711;50.108;13.712;2022-09-09T09:19:20;8.05;;;1.30;;
59830;SDS011;45711;50.108;13.712;2022-09-09T09:21:52;2.65;;;1.20;;
59830;SDS011;45711;50.108;13.712;2022-09-09T09:24:25;2.90;;;1.07;;
59830;SDS011;45711;50.108;13.712;2022-09-09T09:27:04;2.83;;;0.98;;
59830;SDS011;45711;50.108;13.712;2022-09-09T09:29:37;6.00;;;1.20;;
59830;SDS011;45711;50.108;13.712;2022-09-09T09:32:05;2.75;;;1.25;;
59830;SDS011;45711;50.108;13.712;2022-09-09T09:34:35;3.17;;;1.20;;
59830;SDS011;45711;50.108;13.712;2022-09-09T09:37:00;2.28;;;1.20;;
59830;SDS011;45711;50.108;13.712;2022-09-09T09:39:27;1.65;;;1.00;;
59830;SDS011;45711;50.108;13.712;2022-09-09T09:41:54;4.65;;;1.00;;
59830;SDS011;45711;50.108;13.712;2022-09-09T09:44:25;3.95;;;0.88;;
59830;SDS011;45711;50.108;13.712;2022-09-09T09:46:52;4.17;;;1.10;;
59830;SDS011;45711;50.108;13.712;2022-09-09T09:49:18;3.90;;;1.17;;
59830;SDS011;45711;50.108;13.712;2022-09-09T09:51:44;4.90;;;1.40;;
59830;SDS011;45711;50.108;13.712;2022-09-09T09:54:14;2.47;;;0.90;;
59830;SDS011;45711;50.108;13.712;2022-09-09T09:56:54;8.18;;;1.15;;
59830;SDS011;45711;50.108;13.712;2022-09-09T09:59:20;3.03;;;1.10;;
59830;SDS011;45711;50.108;13.712;2022-09-09T10:01:49;4.00;;;0.93;;
59830;SDS011;45711;50.108;13.712;2022-09-09T10:04:15;4.28;;;1.00;;
59830;SDS011;45711;50.108;13.712;2022-09-09T10:06:43;3.38;;;0.93;;
59830;SDS011;45711;50.108;13.712;2022-09-09T10:09:20;6.22;;;1.15;;
59830;SDS011;45711;50.108;13.712;2022-09-09T10:11:49;3.10;;;0.93;;
59830;SDS011;45711;50.108;13.712;2022-09-09T10:14:25;4.45;;;1.20;;
59830;SDS011;45711;50.108;13.712;2022-09-09T10:17:03;7.00;;;1.15;;
59830;SDS011;45711;50.108;13.712;2022-09-09T10:19:37;4.35;;;1.10;;
59830;SDS011;45711;50.108;13.712;2022-09-09T10:22:12;5.30;;;0.90;;
59830;SDS011;45711;50.108;13.712;2022-09-09T10:24:56;2.47;;;0.90;;
59830;SDS011;45711;50.108;13.712;2022-09-09T10:27:46;3.55;;;0.80;;
59830;SDS011;45711;50.108;13.712;2022-09-09T10:30:22;2.47;;;0.70;;
59830;SDS011;45711;50.108;13.712;2022-09-09T10:32:52;2.88;;;1.10;;
59830;SDS011;45711;50.108;13.712;2022-09-09T10:35:29;3.65;;;0.80;;
59830;SDS011;45711;50.108;13.712;2022-09-09T10:40:41;3.72;;;0.88;;
59830;SDS011;45711;50.108;13.712;2022-09-09T10:43:19;6.40;;;0.90;;
59830;SDS011;45711;50.108;13.712;2022-09-09T10:45:57;2.38;;;0.70;;
59830;SDS011;45711;50.108;13.712;2022-09-09T10:48:34;2.58;;;0.80;;
59830;SDS011;45711;50.108;13.712;2022-09-09T10:51:18;2.85;;;0.95;;
59830;SDS011;45711;50.108;13.712;2022-09-09T10:53:52;6.25;;;2.03;;
59830;SDS011;45711;50.108;13.712;2022-09-09T10:56:28;1.92;;;0.60;;
59830;SDS011;45711;50.108;13.712;2022-09-09T10:58:56;1.58;;;0.70;;
59830;SDS011;45711;50.108;13.712;2022-09-09T11:01:28;5.30;;;0.95;;
59830;SDS011;45711;50.108;13.712;2022-09-09T11:04:00;6.18;;;0.80;;
59830;SDS011;45711;50.108;13.712;2022-09-09T11:06:31;2.40;;;0.80;;
59830;SDS011;45711;50.108;13.712;2022-09-09T11:09:02;3.95;;;0.90;;
59830;SDS011;45711;50.108;13.712;2022-09-09T11:11:32;3.20;;;1.05;;
59830;SDS011;45711;50.108;13.712;2022-09-09T11:14:03;2.70;;;0.90;;
59830;SDS011;45711;50.108;13.712;2022-09-09T11:16:38;2.05;;;0.90;;
59830;SDS011;45711;50.108;13.712;2022-09-09T11:19:11;6.05;;;0.70;;
59830;SDS011;45711;50.108;13.712;2022-09-09T11:21:44;5.10;;;1.02;;
59830;SDS011;45711;50.108;13.712;2022-09-09T11:24:13;3.10;;;0.80;;
59830;SDS011;45711;50.108;13.712;2022-09-09T11:26:45;1.77;;;0.88;;
59830;SDS011;45711;50.108;13.712;2022-09-09T11:29:20;1.95;;;0.80;;
59830;SDS011;45711;50.108;13.712;2022-09-09T11:32:02;2.95;;;1.17;;
59830;SDS011;45711;50.108;13.712;2022-09-09T11:34:41;2.70;;;0.90;;
59830;SDS011;45711;50.108;13.712;2022-09-09T11:37:23;3.70;;;0.82;;
59830;SDS011;45711;50.108;13.712;2022-09-09T11:42:45;2.10;;;1.02;;
59830;SDS011;45711;50.108;13.712;2022-09-09T11:45:19;8.20;;;1.27;;
59830;SDS011;45711;50.108;13.712;2022-09-09T11:47:51;5.50;;;1.00;;
59830;SDS011;45711;50.108;13.712;2022-09-09T11:50:28;2.55;;;0.70;;
59830;SDS011;45711;50.108;13.712;2022-09-09T11:53:04;4.63;;;0.90;;
59830;SDS011;45711;50.108;13.712;2022-09-09T11:55:40;2.00;;;0.75;;
59830;SDS011;45711;50.108;13.712;2022-09-09T11:58:13;1.35;;;0.77;;
59830;SDS011;45711;50.108;13.712;2022-09-09T12:00:42;6.20;;;0.85;;
59830;SDS011;45711;50.108;13.712;2022-09-09T12:03:28;2.63;;;0.82;;
59830;SDS011;45711;50.108;13.712;2022-09-09T12:06:15;1.20;;;0.70;;
59830;SDS011;45711;50.108;13.712;2022-09-09T12:08:46;1.88;;;0.80;;
59830;SDS011;45711;50.108;13.712;2022-09-09T12:11:23;4.32;;;1.13;;
59830;SDS011;45711;50.108;13.712;2022-09-09T12:13:52;4.50;;;0.90;;
59830;SDS011;45711;50.108;13.712;2022-09-09T12:16:27;4.35;;;0.75;;
59830;SDS011;45711;50.108;13.712;2022-09-09T12:19:02;3.38;;;0.80;;
59830;SDS011;45711;50.108;13.712;2022-09-09T12:21:32;5.03;;;0.80;;
59830;SDS011;45711;50.108;13.712;2022-09-09T12:24:04;3.92;;;0.75;;
59830;SDS011;45711;50.108;13.712;2022-09-09T12:26:34;3.45;;;0.80;;
59830;SDS011;45711;50.108;13.712;2022-09-09T12:29:09;4.65;;;0.90;;
59830;SDS011;45711;50.108;13.712;2022-09-09T12:31:44;0.82;;;0.60;;
59830;SDS011;45711;50.108;13.712;2022-09-09T12:34:18;7.90;;;0.80;;
59830;SDS011;45711;50.108;13.712;2022-09-09T12:36:57;1.77;;;0.82;;
59830;SDS011;45711;50.108;13.712;2022-09-09T12:39:28;6.53;;;1.05;;
59830;SDS011;45711;50.108;13.712;2022-09-09T12:41:58;4.60;;;0.90;;
59830;SDS011;45711;50.108;13.712;2022-09-09T12:44:23;4.80;;;1.02;;
59830;SDS011;45711;50.108;13.712;2022-09-09T12:46:50;8.50;;;1.10;;
59830;SDS011;45711;50.108;13.712;2022-09-09T12:49:26;2.03;;;0.90;;
59830;SDS011;45711;50.108;13.712;2022-09-09T12:51:57;2.55;;;0.82;;
59830;SDS011;45711;50.108;13.712;2022-09-09T12:54:23;1.92;;;1.00;;
59830;SDS011;45711;50.108;13.712;2022-09-09T12:56:52;1.77;;;0.80;;
59830;SDS011;45711;50.108;13.712;2022-09-09T12:59:21;2.97;;;0.70;;
59830;SDS011;45711;50.108;13.712;2022-09-09T13:01:54;2.08;;;0.70;;
59830;SDS011;45711;50.108;13.712;2022-09-09T13:04:21;2.20;;;0.80;;
59830;SDS011;45711;50.108;13.712;2022-09-09T13:06:49;2.70;;;0.88;;
59830;SDS011;45711;50.108;13.712;2022-09-09T13:09:16;2.75;;;0.90;;
59830;SDS011;45711;50.108;13.712;2022-09-09T13:11:42;2.00;;;0.82;;
59830;SDS011;45711;50.108;13.712;2022-09-09T13:14:13;3.70;;;0.80;;
59830;SDS011;45711;50.108;13.712;2022-09-09T13:16:53;2.53;;;0.70;;
59830;SDS011;45711;50.108;13.712;2022-09-09T13:19:28;3.17;;;0.60;;
59830;SDS011;45711;50.108;13.712;2022-09-09T13:22:00;2.85;;;0.90;;
59830;SDS011;45711;50.108;13.712;2022-09-09T13:24:38;2.80;;;0.90;;
59830;SDS011;45711;50.108;13.712;2022-09-09T13:27:04;2.25;;;1.02;;
59830;SDS011;45711;50.108;13.712;2022-09-09T13:29:50;3.70;;;1.15;;
59830;SDS011;45711;50.108;13.712;2022-09-09T13:32:17;1.92;;;0.82;;
59830;SDS011;45711;50.108;13.712;2022-09-09T13:34:49;1.40;;;0.82;;
59830;SDS011;45711;50.108;13.712;2022-09-09T13:37:17;2.30;;;0.90;;
59830;SDS011;45711;50.108;13.712;2022-09-09T13:39:51;2.00;;;0.85;;
59830;SDS011;45711;50.108;13.712;2022-09-09T13:42:21;3.80;;;1.10;;
59830;SDS011;45711;50.108;13.712;2022-09-09T13:44:50;10.15;;;0.93;;
59830;SDS011;45711;50.108;13.712;2022-09-09T13:47:17;4.88;;;0.98;;
59830;SDS011;45711;50.108;13.712;2022-09-09T13:49:48;2.92;;;1.02;;
59830;SDS011;45711;50.108;13.712;2022-09-09T13:52:14;2.25;;;0.90;;
59830;SDS011;45711;50.108;13.712;2022-09-09T13:54:46;5.40;;;1.00;;
59830;SDS011;45711;50.108;13.712;2022-09-09T13:57:16;2.10;;;0.88;;
59830;SDS011;45711;50.108;13.712;2022-09-09T13:59:43;4.00;;;0.93;;
59830;SDS011;45711;50.108;13.712;2022-09-09T14:02:09;2.53;;;0.65;;
59830;SDS011;45711;50.108;13.712;2022-09-09T14:04:35;2.83;;;0.80;;
59830;SDS011;45711;50.108;13.712;2022-09-09T14:07:12;3.72;;;0.80;;
59830;SDS011;45711;50.108;13.712;2022-09-09T14:10:16;3.87;;;0.93;;
59830;SDS011;45711;50.108;13.712;2022-09-09T14:12:49;1.60;;;0.73;;
59830;SDS011;45711;50.108;13.712;2022-09-09T14:15:15;8.93;;;0.90;;
59830;SDS011;45711;50.108;13.712;2022-09-09T14:17:41;2.70;;;0.90;;
59830;SDS011;45711;50.108;13.712;2022-09-09T14:20:07;6.13;;;0.88;;
59830;SDS011;45711;50.108;13.712;2022-09-09T14:22:33;5.07;;;0.93;;
59830;SDS011;45711;50.108;13.712;2022-09-09T14:24:59;1.88;;;0.65;;
59830;SDS011;45711;50.108;13.712;2022-09-09T14:27:25;2.75;;;1.10;;
59830;SDS011;45711;50.108;13.712;2022-09-09T14:29:52;5.70;;;1.00;;
59830;SDS011;45711;50.108;13.712;2022-09-09T14:32:18;7.75;;;1.20;;
59830;SDS011;45711;50.108;13.712;2022-09-09T14:34:44;4.30;;;0.88;;
59830;SDS011;45711;50.108;13.712;2022-09-09T14:37:10;1.67;;;0.70;;
59830;SDS011;45711;50.108;13.712;2022-09-09T14:39:35;5.80;;;0.90;;
59830;SDS011;45711;50.108;13.712;2022-09-09T14:42:01;3.25;;;0.60;;
59830;SDS011;45711;50.108;13.712;2022-09-09T14:44:27;5.05;;;0.90;;
59830;SDS011;45711;50.108;13.712;2022-09-09T14:46:54;2.25;;;0.80;;
59830;SDS011;45711;50.108;13.712;2022-09-09T14:49:19;2.10;;;0.85;;
59830;SDS011;45711;50.108;13.712;2022-09-09T14:51:45;5.22;;;0.90;;
59830;SDS011;45711;50.108;13.712;2022-09-09T14:54:11;2.42;;;0.50;;
59830;SDS011;45711;50.108;13.712;2022-09-09T14:56:37;2.65;;;0.80;;
59830;SDS011;45711;50.108;13.712;2022-09-09T14:59:03;6.07;;;0.77;;
59830;SDS011;45711;50.108;13.712;2022-09-09T15:01:29;8.70;;;0.80;;